createdAt,value
2022-12-20T00:01:22.307Z,3.93
2022-12-20T00:03:51.299Z,3.67
2022-12-20T00:06:18.947Z,3.85
2022-12-20T00:08:46.372Z,3.28
2022-12-20T00:11:14.267Z,3.72
2022-12-20T00:13:41.269Z,3.23
2022-12-20T00:16:11.192Z,3.60
2022-12-20T00:18:40.766Z,3.33
2022-12-20T00:21:09.331Z,3.80
2022-12-20T00:23:37.664Z,3.47
2022-12-20T00:26:10.510Z,3.37
2022-12-20T00:28:38.487Z,3.55
2022-12-20T00:31:07.255Z,3.00
2022-12-20T00:33:35.307Z,3.60
2022-12-20T00:36:02.235Z,3.63
2022-12-20T00:38:29.074Z,3.40
2022-12-20T00:41:13.502Z,3.65
2022-12-20T00:43:41.186Z,3.22
2022-12-20T00:46:11.883Z,3.50
2022-12-20T00:48:39.430Z,3.17
2022-12-20T00:51:09.706Z,3.50
2022-12-20T00:53:37.228Z,3.63
2022-12-20T00:56:05.252Z,4.00
2022-12-20T00:58:35.151Z,3.60
2022-12-20T01:01:02.204Z,3.30
2022-12-20T01:03:29.386Z,3.10
2022-12-20T01:06:01.597Z,3.15
2022-12-20T01:08:30.742Z,3.38
2022-12-20T01:11:14.855Z,3.25
2022-12-20T01:13:44.587Z,3.70
2022-12-20T01:16:18.359Z,3.47
2022-12-20T01:18:46.094Z,3.60
2022-12-20T01:21:16.202Z,3.15
2022-12-20T01:23:43.343Z,3.53
2022-12-20T01:26:17.589Z,3.60
2022-12-20T01:28:46.100Z,3.37
2022-12-20T01:31:16.207Z,4.07
2022-12-20T01:33:44.648Z,2.95
2022-12-20T01:36:16.967Z,4.28
2022-12-20T01:38:44.271Z,3.40
2022-12-20T01:41:19.397Z,3.70
2022-12-20T01:43:56.409Z,2.85
2022-12-20T01:46:34.912Z,4.05
2022-12-20T01:49:25.071Z,3.38
2022-12-20T01:52:05.509Z,3.40
2022-12-20T01:54:46.636Z,4.20
2022-12-20T01:57:20.977Z,3.60
2022-12-20T01:59:50.587Z,4.03
2022-12-20T02:02:18.153Z,4.00
2022-12-20T02:04:44.989Z,3.25
2022-12-20T02:07:17.776Z,4.37
2022-12-20T02:09:45.292Z,3.50
2022-12-20T02:12:16.359Z,3.28
2022-12-20T02:14:51.158Z,3.97
2022-12-20T02:17:29.912Z,3.92
2022-12-20T02:20:18.240Z,2.73
2022-12-20T02:23:16.701Z,3.38
2022-12-20T02:26:02.209Z,3.92
2022-12-20T02:28:55.180Z,3.33
2022-12-20T02:31:30.268Z,3.75
2022-12-20T02:33:58.727Z,4.07
2022-12-20T02:36:25.742Z,3.50
2022-12-20T02:38:52.836Z,3.42
2022-12-20T02:41:23.470Z,3.45
2022-12-20T02:44:14.823Z,3.30
2022-12-20T02:46:42.755Z,2.93
2022-12-20T02:49:17.115Z,3.83
2022-12-20T02:51:47.787Z,3.97
2022-12-20T02:54:16.080Z,2.97
2022-12-20T02:56:54.618Z,3.88
2022-12-20T02:59:51.643Z,2.90
2022-12-20T03:02:19.276Z,3.90
2022-12-20T03:04:47.660Z,3.13
2022-12-20T03:07:15.510Z,3.63
2022-12-20T03:09:44.519Z,4.03
2022-12-20T03:12:15.975Z,3.60
2022-12-20T03:14:42.737Z,3.05
2022-12-20T03:17:11.543Z,3.88
2022-12-20T03:19:38.548Z,3.30
2022-12-20T03:22:06.099Z,3.58
2022-12-20T03:24:33.596Z,4.03
2022-12-20T03:27:01.243Z,3.90
2022-12-20T03:29:28.240Z,3.90
2022-12-20T03:31:55.105Z,3.15
2022-12-20T03:34:22.148Z,3.50
2022-12-20T03:36:50.155Z,3.00
2022-12-20T03:39:17.167Z,3.50
2022-12-20T03:41:44.422Z,3.08
2022-12-20T03:44:14.063Z,3.17
2022-12-20T03:46:41.195Z,2.90
2022-12-20T03:49:08.237Z,2.70
2022-12-20T03:51:42.462Z,3.10
2022-12-20T03:54:09.468Z,3.30
2022-12-20T03:57:02.413Z,2.63
2022-12-20T03:59:30.497Z,3.25
2022-12-20T04:01:58.763Z,2.83
2022-12-20T04:04:28.932Z,3.30
2022-12-20T04:06:55.914Z,3.35
2022-12-20T04:09:23.053Z,3.22
2022-12-20T04:11:54.940Z,2.88
2022-12-20T04:14:21.733Z,3.10
2022-12-20T04:16:49.243Z,2.75
2022-12-20T04:19:16.244Z,3.38
2022-12-20T04:21:46.473Z,3.42
2022-12-20T04:24:15.373Z,3.42
2022-12-20T04:27:08.360Z,2.97
2022-12-20T04:29:35.468Z,3.20
2022-12-20T04:32:04.910Z,3.15
2022-12-20T04:34:31.700Z,3.50
2022-12-20T04:36:59.276Z,2.90
2022-12-20T04:39:37.532Z,2.97
2022-12-20T04:42:30.646Z,3.55
2022-12-20T04:44:57.996Z,2.97
2022-12-20T04:47:28.343Z,3.65
2022-12-20T04:49:55.655Z,3.80
2022-12-20T04:52:47.300Z,3.73
2022-12-20T04:55:15.554Z,3.95
2022-12-20T04:57:42.481Z,3.40
2022-12-20T05:00:10.116Z,3.70
2022-12-20T05:02:42.203Z,3.22
2022-12-20T05:05:14.203Z,3.67
2022-12-20T05:07:47.121Z,3.85
2022-12-20T05:10:14.464Z,3.75
2022-12-20T05:12:41.403Z,3.88
2022-12-20T05:15:12.795Z,3.20
2022-12-20T05:17:40.075Z,3.70
2022-12-20T05:20:07.617Z,3.08
2022-12-20T05:22:53.053Z,3.38
2022-12-20T05:25:38.471Z,3.92
2022-12-20T05:28:07.773Z,3.13
2022-12-20T05:30:36.741Z,3.63
2022-12-20T05:33:04.121Z,3.50
2022-12-20T05:35:31.645Z,3.17
2022-12-20T05:38:06.147Z,3.20
2022-12-20T05:40:33.267Z,3.17
2022-12-20T05:43:00.709Z,3.70
2022-12-20T05:45:36.592Z,3.70
2022-12-20T05:48:09.549Z,3.17
2022-12-20T05:50:39.542Z,3.45
2022-12-20T05:53:21.546Z,2.95
2022-12-20T05:55:54.062Z,3.80
2022-12-20T05:58:25.242Z,3.03
2022-12-20T06:01:05.151Z,3.67
2022-12-20T06:03:37.514Z,3.20
2022-12-20T06:06:13.992Z,3.47
2022-12-20T06:08:41.930Z,3.87
2022-12-20T06:11:13.914Z,3.50
2022-12-20T06:13:52.016Z,3.58
2022-12-20T06:16:21.205Z,3.90
2022-12-20T06:18:48.162Z,3.17
2022-12-20T06:21:16.177Z,3.13
2022-12-20T06:23:43.478Z,3.03
2022-12-20T06:26:13.639Z,3.20
2022-12-20T06:28:54.517Z,2.38
2022-12-20T06:31:25.372Z,3.40
2022-12-20T06:33:54.205Z,4.20
2022-12-20T06:36:22.929Z,3.38
2022-12-20T06:38:50.566Z,3.60
2022-12-20T06:41:18.353Z,5.53
2022-12-20T06:43:45.583Z,2.95
2022-12-20T06:46:12.595Z,3.90
2022-12-20T06:48:39.557Z,3.38
2022-12-20T06:51:08.448Z,3.03
2022-12-20T06:53:35.603Z,3.08
2022-12-20T06:56:03.360Z,3.28
2022-12-20T06:58:32.090Z,2.47
2022-12-20T07:00:59.129Z,3.03
2022-12-20T07:03:26.205Z,2.60
2022-12-20T07:05:54.371Z,2.85
2022-12-20T07:08:25.208Z,3.25
2022-12-20T07:10:56.519Z,2.60
2022-12-20T07:13:23.771Z,3.03
2022-12-20T07:15:59.236Z,3.40
2022-12-20T07:18:26.391Z,2.72
2022-12-20T07:20:53.654Z,2.60
2022-12-20T07:23:20.644Z,3.07
2022-12-20T07:25:55.478Z,3.05
2022-12-20T07:28:23.750Z,2.03
2022-12-20T07:30:53.828Z,2.80
2022-12-20T07:33:21.382Z,2.53
2022-12-20T07:35:53.984Z,2.57
2022-12-20T07:38:21.385Z,2.30
2022-12-20T07:40:48.351Z,2.72
2022-12-20T07:43:15.293Z,2.70
2022-12-20T07:45:42.348Z,2.40
2022-12-20T07:48:15.227Z,2.73
2022-12-20T07:50:45.380Z,3.13
2022-12-20T07:53:12.394Z,2.40
2022-12-20T07:55:42.172Z,3.17
2022-12-20T07:58:11.598Z,2.47
2022-12-20T08:00:39.074Z,2.93
2022-12-20T08:03:16.898Z,2.58
2022-12-20T08:05:48.502Z,2.50
2022-12-20T08:08:15.910Z,3.05
2022-12-20T08:10:43.454Z,2.85
2022-12-20T08:13:10.562Z,2.83
2022-12-20T08:15:37.538Z,3.13
2022-12-20T08:18:06.182Z,2.60
2022-12-20T08:20:33.499Z,2.78
2022-12-20T08:23:02.463Z,2.70
2022-12-20T08:25:29.443Z,2.83
2022-12-20T08:27:56.475Z,2.78
2022-12-20T08:30:23.439Z,2.70
2022-12-20T08:32:50.440Z,2.45
2022-12-20T08:35:17.406Z,3.30
2022-12-20T08:37:44.362Z,2.70
2022-12-20T08:40:11.902Z,2.60
2022-12-20T08:42:38.886Z,3.10
2022-12-20T08:45:07.221Z,2.72
2022-12-20T08:47:34.354Z,3.00
2022-12-20T08:50:01.890Z,2.87
2022-12-20T08:52:29.767Z,2.72
2022-12-20T08:54:56.693Z,3.30
2022-12-20T08:57:23.752Z,2.95
2022-12-20T08:59:50.717Z,2.80
2022-12-20T09:02:23.121Z,2.40
2022-12-20T09:04:50.587Z,2.65
2022-12-20T09:07:17.648Z,3.30
2022-12-20T09:09:44.525Z,2.80
2022-12-20T09:12:12.092Z,3.38
2022-12-20T09:14:40.279Z,2.70
2022-12-20T09:17:07.798Z,3.10
2022-12-20T09:19:34.718Z,3.03
2022-12-20T09:22:01.821Z,2.80
2022-12-20T09:24:29.997Z,3.60
2022-12-20T09:26:56.975Z,3.20
2022-12-20T09:29:29.450Z,3.85
2022-12-20T09:31:56.576Z,3.53
2022-12-20T09:34:23.573Z,3.15
2022-12-20T09:36:51.918Z,3.55
2022-12-20T09:39:19.289Z,3.80
2022-12-20T09:41:46.517Z,3.55
2022-12-20T09:44:15.788Z,3.13
2022-12-20T09:46:45.777Z,3.10
2022-12-20T09:49:17.400Z,3.42
2022-12-20T09:52:10.794Z,3.80
2022-12-20T09:54:53.364Z,3.40
2022-12-20T09:57:43.844Z,3.10
2022-12-20T10:00:19.915Z,3.88
2022-12-20T10:03:09.974Z,3.65
2022-12-20T10:05:46.720Z,2.93
2022-12-20T10:08:23.767Z,4.10
2022-12-20T10:11:08.900Z,4.18
2022-12-20T10:13:42.387Z,4.13
2022-12-20T10:16:12.663Z,4.32
2022-12-20T10:18:46.339Z,3.50
2022-12-20T10:21:51.108Z,3.88
2022-12-20T10:24:21.502Z,3.33
2022-12-20T10:26:51.977Z,4.10
2022-12-20T10:29:21.256Z,4.30
2022-12-20T10:32:00.918Z,4.40
2022-12-20T10:34:36.562Z,3.55
2022-12-20T10:37:13.041Z,4.07
2022-12-20T10:39:47.374Z,3.67
2022-12-20T10:42:36.111Z,3.30
2022-12-20T10:45:03.647Z,5.70
2022-12-20T10:47:41.712Z,6.40
2022-12-20T10:50:29.375Z,4.30
2022-12-20T10:53:15.002Z,5.03
2022-12-20T10:55:44.038Z,3.90
2022-12-20T10:58:33.642Z,3.80
2022-12-20T11:01:23.833Z,3.28
2022-12-20T11:03:53.747Z,4.65
2022-12-20T11:06:23.943Z,3.92
2022-12-20T11:08:57.021Z,5.15
2022-12-20T11:11:27.617Z,4.20
2022-12-20T11:13:54.695Z,4.28
2022-12-20T11:16:41.089Z,4.85
2022-12-20T11:19:29.436Z,3.40
2022-12-20T11:22:17.622Z,4.75
2022-12-20T11:25:05.974Z,4.37
2022-12-20T11:27:37.994Z,4.75
2022-12-20T11:30:20.211Z,5.78
2022-12-20T11:33:02.987Z,4.03
2022-12-20T11:36:09.044Z,5.30
2022-12-20T11:38:48.017Z,4.67
2022-12-20T11:41:33.784Z,4.10
2022-12-20T11:44:25.253Z,6.43
2022-12-20T11:47:20.052Z,5.30
2022-12-20T11:50:14.755Z,5.78
2022-12-20T11:52:48.089Z,4.27
2022-12-20T11:55:27.499Z,5.50
2022-12-20T11:58:35.356Z,5.82
2022-12-20T12:01:15.310Z,5.43
2022-12-20T12:04:04.820Z,6.70
2022-12-20T12:06:40.082Z,5.97
2022-12-20T12:09:12.145Z,5.30
2022-12-20T12:12:08.841Z,7.18
2022-12-20T12:15:04.806Z,5.53
2022-12-20T12:17:38.089Z,6.15
2022-12-20T12:20:35.237Z,5.80
2022-12-20T12:23:37.028Z,5.60
2022-12-20T12:26:20.242Z,6.18
2022-12-20T12:29:10.404Z,5.97
2022-12-20T12:31:46.374Z,4.60
2022-12-20T12:34:50.773Z,5.40
2022-12-20T12:37:46.672Z,5.97
2022-12-20T12:40:32.518Z,5.38
2022-12-20T12:43:26.813Z,6.23
2022-12-20T12:46:14.229Z,5.97
2022-12-20T12:49:10.856Z,6.13
2022-12-20T12:51:50.194Z,6.68
2022-12-20T12:54:27.620Z,6.43
2022-12-20T12:57:06.727Z,6.55
2022-12-20T12:59:33.763Z,6.13
2022-12-20T13:02:06.248Z,6.50
2022-12-20T13:04:55.463Z,6.85
2022-12-20T13:07:35.285Z,6.32
2022-12-20T13:10:25.559Z,6.70
2022-12-20T13:12:52.752Z,6.35
2022-12-20T13:15:19.713Z,6.97
2022-12-20T13:17:55.762Z,6.13
2022-12-20T13:20:34.802Z,6.80
2022-12-20T13:23:11.882Z,6.63
2022-12-20T13:25:42.220Z,6.22
2022-12-20T13:28:24.677Z,5.97
2022-12-20T13:31:00.680Z,6.60
2022-12-20T13:33:47.060Z,6.25
2022-12-20T13:36:16.934Z,6.15
2022-12-20T13:38:44.918Z,6.55
2022-12-20T13:41:20.238Z,6.53
2022-12-20T13:43:49.661Z,6.03
2022-12-20T13:46:42.467Z,5.10
2022-12-20T13:49:15.276Z,4.88
2022-12-20T13:51:42.529Z,6.93
2022-12-20T13:54:23.167Z,6.83
2022-12-20T13:56:54.209Z,6.53
2022-12-20T13:59:31.775Z,6.72
2022-12-20T14:02:05.138Z,7.40
2022-12-20T14:04:44.676Z,7.53
2022-12-20T14:07:18.346Z,4.40
2022-12-20T14:09:47.359Z,7.07
2022-12-20T14:12:22.908Z,7.25
2022-12-20T14:14:54.451Z,7.32
2022-12-20T14:17:29.648Z,7.93
2022-12-20T14:20:24.349Z,6.93
2022-12-20T14:23:06.197Z,6.68
2022-12-20T14:25:44.595Z,7.30
2022-12-20T14:28:30.197Z,7.05
2022-12-20T14:30:59.945Z,7.28
2022-12-20T14:33:41.445Z,8.00
2022-12-20T14:36:21.070Z,6.65
2022-12-20T14:38:52.644Z,8.13
2022-12-20T14:41:36.470Z,6.57
2022-12-20T14:44:22.473Z,7.63
2022-12-20T14:46:58.387Z,6.47
2022-12-20T14:49:34.460Z,7.38
2022-12-20T14:52:34.186Z,8.30
2022-12-20T14:55:08.364Z,6.57
2022-12-20T14:57:36.412Z,5.97
2022-12-20T15:00:18.555Z,5.90
2022-12-20T15:02:59.552Z,7.35
2022-12-20T15:05:35.985Z,5.43
2022-12-20T15:08:18.460Z,8.07
2022-12-20T15:11:00.345Z,8.48
2022-12-20T15:13:32.085Z,8.23
2022-12-20T15:16:04.666Z,8.57
2022-12-20T15:18:32.632Z,8.73
2022-12-20T15:21:07.056Z,9.18
2022-12-20T15:23:34.543Z,9.10
2022-12-20T15:26:01.547Z,8.23
2022-12-20T15:28:28.722Z,8.07
2022-12-20T15:30:56.109Z,8.05
2022-12-20T15:33:29.304Z,8.82
2022-12-20T15:35:56.962Z,8.82
2022-12-20T15:38:47.716Z,9.10
2022-12-20T15:41:33.966Z,8.10
2022-12-20T15:44:05.410Z,8.18
2022-12-20T15:46:32.418Z,8.40
2022-12-20T15:48:59.829Z,9.00
2022-12-20T15:51:38.183Z,9.93
2022-12-20T15:54:22.180Z,9.38
2022-12-20T15:56:49.130Z,9.52
2022-12-20T15:59:48.829Z,8.00
2022-12-20T16:02:03.515Z,8.93
2022-12-20T16:04:30.566Z,9.17
2022-12-20T16:06:57.557Z,9.73
2022-12-20T16:09:25.980Z,9.82
2022-12-20T16:11:53.087Z,8.55
2022-12-20T16:14:21.803Z,10.25
2022-12-20T16:16:51.777Z,9.90
2022-12-20T16:19:19.397Z,9.77
2022-12-20T16:21:48.961Z,10.60
2022-12-20T16:24:18.682Z,8.63
2022-12-20T16:26:46.269Z,9.32
2022-12-20T16:29:13.295Z,10.03
2022-12-20T16:31:44.612Z,10.55
2022-12-20T16:34:17.468Z,10.30
2022-12-20T16:36:45.103Z,10.70
2022-12-20T16:39:12.226Z,9.48
2022-12-20T16:41:43.783Z,11.60
2022-12-20T16:44:16.423Z,11.60
2022-12-20T16:46:43.865Z,11.00
2022-12-20T16:49:19.404Z,7.70
2022-12-20T16:51:48.219Z,8.65
2022-12-20T16:54:20.643Z,9.67
2022-12-20T16:56:51.074Z,10.48
2022-12-20T16:59:20.853Z,8.70
2022-12-20T17:01:50.010Z,12.38
2022-12-20T17:04:18.995Z,10.90
2022-12-20T17:06:46.936Z,12.27
2022-12-20T17:12:00.491Z,9.80
2022-12-20T17:14:27.456Z,12.63
2022-12-20T17:16:54.399Z,12.82
2022-12-20T17:19:23.902Z,11.63
2022-12-20T17:24:35.317Z,12.82
2022-12-20T17:27:02.372Z,12.65
2022-12-20T17:29:30.592Z,12.73
2022-12-20T17:31:57.699Z,13.57
2022-12-20T17:34:28.627Z,13.65
2022-12-20T17:36:57.831Z,13.57
2022-12-20T17:39:25.879Z,13.38
2022-12-20T17:41:54.915Z,14.27
2022-12-20T17:44:27.248Z,14.07
2022-12-20T17:46:56.112Z,13.60
2022-12-20T17:49:24.387Z,13.93
2022-12-20T17:51:52.216Z,13.43
2022-12-20T17:54:22.093Z,13.45
2022-12-20T17:56:53.625Z,14.17
2022-12-20T17:59:22.425Z,13.23
2022-12-20T18:01:49.689Z,15.20
2022-12-20T18:04:17.316Z,15.43
2022-12-20T18:06:45.474Z,14.60
2022-12-20T18:09:19.297Z,15.77
2022-12-20T18:11:46.287Z,15.40
2022-12-20T18:14:14.028Z,12.60
2022-12-20T18:16:41.661Z,15.10
2022-12-20T18:19:14.519Z,15.20
2022-12-20T18:21:41.798Z,15.90
2022-12-20T18:24:11.700Z,15.80
2022-12-20T18:26:38.676Z,15.38
2022-12-20T18:29:05.439Z,15.70
2022-12-20T18:31:34.328Z,12.55
2022-12-20T18:34:02.049Z,13.93
2022-12-20T18:36:31.737Z,11.75
2022-12-20T18:38:59.613Z,14.38
2022-12-20T18:41:29.834Z,13.05
2022-12-20T18:44:01.490Z,15.23
2022-12-20T18:46:29.027Z,15.20
2022-12-20T18:48:59.636Z,16.00
2022-12-20T18:51:33.126Z,14.85
2022-12-20T18:54:00.818Z,13.82
2022-12-20T18:56:30.830Z,16.70
2022-12-20T18:59:04.569Z,15.63
2022-12-20T19:01:37.752Z,16.08
2022-12-20T19:04:06.099Z,16.80
2022-12-20T19:06:33.020Z,15.93
2022-12-20T19:09:00.903Z,17.42
2022-12-20T19:11:29.080Z,16.90
2022-12-20T19:13:56.701Z,17.08
2022-12-20T19:16:26.720Z,17.35
2022-12-20T19:18:53.624Z,17.35
2022-12-20T19:21:34.845Z,16.73
2022-12-20T19:24:05.202Z,16.83
2022-12-20T19:26:32.457Z,16.58
2022-12-20T19:28:59.977Z,15.40
2022-12-20T19:31:29.994Z,17.60
2022-12-20T19:33:59.764Z,17.30
2022-12-20T19:36:31.966Z,16.73
2022-12-20T19:39:01.574Z,15.85
2022-12-20T19:41:31.237Z,17.13
2022-12-20T19:43:58.912Z,16.50
2022-12-20T19:46:29.266Z,17.40
2022-12-20T19:48:57.771Z,16.57
2022-12-20T19:51:25.660Z,17.00
2022-12-20T19:53:53.856Z,17.73
2022-12-20T19:56:26.775Z,17.60
2022-12-20T19:58:55.182Z,17.13
2022-12-20T20:01:25.689Z,17.23
2022-12-20T20:03:54.507Z,16.83
2022-12-20T20:06:22.163Z,17.88
2022-12-20T20:08:49.814Z,17.92
2022-12-20T20:11:18.910Z,17.05
2022-12-20T20:13:46.097Z,17.07
2022-12-20T20:16:18.196Z,17.63
2022-12-20T20:18:49.053Z,16.08
2022-12-20T20:21:19.834Z,17.13
2022-12-20T20:23:46.745Z,16.58
2022-12-20T20:26:17.208Z,17.27
2022-12-20T20:28:45.645Z,18.10
2022-12-20T20:31:15.152Z,18.42
2022-12-20T20:33:42.916Z,15.10
2022-12-20T20:36:15.233Z,17.92
2022-12-20T20:38:42.213Z,18.37
2022-12-20T20:41:10.031Z,18.58
2022-12-20T20:43:38.182Z,18.85
2022-12-20T20:46:07.095Z,18.13
2022-12-20T20:48:34.700Z,18.48
2022-12-20T20:51:01.566Z,16.43
2022-12-20T20:53:33.359Z,16.85
2022-12-20T20:56:01.787Z,19.13
2022-12-20T20:58:28.566Z,17.95
2022-12-20T21:00:59.938Z,18.38
2022-12-20T21:03:28.066Z,18.33
2022-12-20T21:08:41.908Z,18.75
2022-12-20T21:11:10.109Z,18.92
2022-12-20T21:13:37.038Z,18.85
2022-12-20T21:16:20.275Z,19.40
2022-12-20T21:18:51.980Z,18.88
2022-12-20T21:21:18.874Z,18.73
2022-12-20T21:23:47.046Z,18.75
2022-12-20T21:26:15.360Z,18.75
2022-12-20T21:28:43.782Z,19.30
2022-12-20T21:31:13.415Z,19.33
2022-12-20T21:33:40.666Z,18.98
2022-12-20T21:36:11.715Z,19.50
2022-12-20T21:38:38.486Z,19.95
2022-12-20T21:41:07.959Z,20.23
2022-12-20T21:43:35.479Z,20.48
2022-12-20T21:46:02.994Z,18.85
2022-12-20T21:48:30.403Z,20.65
2022-12-20T21:51:03.039Z,20.80
2022-12-20T21:53:31.239Z,20.47
2022-12-20T21:55:59.838Z,19.75
2022-12-20T21:58:29.040Z,21.42
2022-12-20T22:00:56.785Z,20.55
2022-12-20T22:03:25.102Z,19.58
2022-12-20T22:05:54.153Z,19.90
2022-12-20T22:08:22.323Z,19.80
2022-12-20T22:10:57.446Z,19.63
2022-12-20T22:13:24.275Z,20.15
2022-12-20T22:15:51.192Z,20.42
2022-12-20T22:18:18.071Z,20.23
2022-12-20T22:20:45.979Z,20.50
2022-12-20T22:23:12.837Z,20.63
2022-12-20T22:25:40.369Z,20.17
2022-12-20T22:28:07.317Z,20.13
2022-12-20T22:30:34.619Z,20.27
2022-12-20T22:33:01.460Z,20.55
2022-12-20T22:35:28.213Z,20.52
2022-12-20T22:37:54.904Z,20.48
2022-12-20T22:40:23.051Z,19.52
2022-12-20T22:42:49.989Z,20.03
2022-12-20T22:45:16.940Z,17.63
2022-12-20T22:47:43.709Z,19.83
2022-12-20T22:50:11.027Z,18.90
2022-12-20T22:52:37.835Z,16.85
2022-12-20T22:55:05.135Z,18.83
2022-12-20T22:57:34.655Z,18.88
2022-12-20T23:00:01.779Z,20.55
2022-12-20T23:02:28.706Z,19.35
2022-12-20T23:04:55.631Z,19.10
2022-12-20T23:07:22.565Z,20.13
2022-12-20T23:09:49.389Z,20.35
2022-12-20T23:12:34.572Z,19.38
2022-12-20T23:15:20.154Z,19.75
2022-12-20T23:17:47.148Z,18.83
2022-12-20T23:20:32.281Z,18.37
2022-12-20T23:22:59.066Z,19.33
2022-12-20T23:25:25.865Z,19.33
2022-12-20T23:27:52.669Z,19.73
2022-12-20T23:30:22.700Z,19.30
2022-12-20T23:32:49.751Z,18.67
2022-12-20T23:35:19.481Z,18.58
2022-12-20T23:37:47.067Z,17.98
2022-12-20T23:40:16.246Z,18.75
2022-12-20T23:42:43.597Z,16.85
2022-12-20T23:45:11.257Z,17.87
2022-12-20T23:47:38.012Z,16.52
2022-12-20T23:50:05.338Z,17.98
2022-12-20T23:52:32.221Z,17.95
2022-12-20T23:54:59.003Z,17.65
2022-12-20T23:57:28.275Z,16.97
2022-12-20T23:59:55.057Z,16.92
